createdAt,value
2022-08-30T00:00:33.084Z,75.30
2022-08-30T00:01:35.829Z,75.00
2022-08-30T00:02:39.268Z,75.40
2022-08-30T00:03:46.064Z,76.70
2022-08-30T00:04:48.939Z,76.80
2022-08-30T00:05:52.251Z,76.50
2022-08-30T00:06:59.870Z,76.90
2022-08-30T00:08:03.405Z,77.00
2022-08-30T00:09:05.675Z,76.50
2022-08-30T00:10:10.645Z,76.00
2022-08-30T00:11:16.127Z,76.80
2022-08-30T00:12:21.101Z,77.10
2022-08-30T00:13:24.094Z,77.50
2022-08-30T00:14:28.700Z,77.40
2022-08-30T00:15:31.330Z,76.60
2022-08-30T00:16:34.615Z,77.00
2022-08-30T00:17:37.079Z,76.80
2022-08-30T00:18:41.176Z,77.10
2022-08-30T00:19:43.907Z,76.80
2022-08-30T00:20:49.834Z,77.40
2022-08-30T00:21:52.536Z,77.40
2022-08-30T00:22:55.820Z,77.40
2022-08-30T00:23:58.083Z,77.30
2022-08-30T00:25:01.696Z,77.30
2022-08-30T00:26:05.563Z,76.00
2022-08-30T00:27:08.755Z,76.50
2022-08-30T00:28:11.775Z,76.30
2022-08-30T00:29:15.227Z,76.20
2022-08-30T00:30:20.585Z,76.10
2022-08-30T00:31:23.753Z,76.30
2022-08-30T00:32:26.545Z,76.30
2022-08-30T00:33:30.708Z,76.40
2022-08-30T00:34:34.553Z,75.40
2022-08-30T00:35:38.826Z,76.40
2022-08-30T00:36:41.173Z,76.50
2022-08-30T00:37:44.508Z,76.00
2022-08-30T00:38:46.870Z,76.60
2022-08-30T00:39:51.260Z,76.90
2022-08-30T00:40:54.144Z,77.30
2022-08-30T00:41:57.542Z,76.70
2022-08-30T00:43:05.779Z,76.60
2022-08-30T00:44:10.420Z,77.40
2022-08-30T00:45:17.285Z,77.10
2022-08-30T00:46:21.881Z,76.60
2022-08-30T00:47:24.074Z,76.80
2022-08-30T00:48:27.571Z,77.40
2022-08-30T00:49:31.165Z,76.70
2022-08-30T00:50:40.155Z,77.00
2022-08-30T00:51:45.896Z,76.30
2022-08-30T00:52:51.869Z,76.40
2022-08-30T00:53:57.386Z,76.50
2022-08-30T00:55:02.416Z,77.20
2022-08-30T00:56:06.982Z,76.70
2022-08-30T00:57:13.169Z,76.50
2022-08-30T00:58:21.713Z,77.70
2022-08-30T00:59:27.263Z,77.70
2022-08-30T01:00:29.719Z,76.90
2022-08-30T01:01:36.113Z,77.30
2022-08-30T01:02:39.958Z,76.60
2022-08-30T01:03:44.861Z,76.90
2022-08-30T01:04:49.086Z,76.70
2022-08-30T01:05:53.721Z,76.50
2022-08-30T01:06:57.259Z,76.50
2022-08-30T01:08:00.409Z,77.60
2022-08-30T01:09:04.329Z,77.10
2022-08-30T01:10:10.387Z,77.70
2022-08-30T01:11:16.992Z,77.40
2022-08-30T01:12:20.659Z,77.60
2022-08-30T01:13:25.355Z,78.30
2022-08-30T01:14:29.555Z,77.90
2022-08-30T01:15:34.512Z,78.20
2022-08-30T01:16:41.125Z,78.10
2022-08-30T01:17:45.803Z,78.00
2022-08-30T01:18:50.805Z,77.60
2022-08-30T01:19:57.243Z,77.80
2022-08-30T01:21:10.303Z,78.30
2022-08-30T01:22:24.623Z,78.80
2022-08-30T01:23:31.294Z,77.60
2022-08-30T01:24:34.684Z,77.70
2022-08-30T01:25:42.447Z,78.00
2022-08-30T01:26:45.446Z,77.30
2022-08-30T01:27:54.984Z,77.80
2022-08-30T01:29:02.623Z,77.60
2022-08-30T01:30:07.705Z,77.30
2022-08-30T01:31:10.074Z,77.70
2022-08-30T01:32:21.028Z,77.20
2022-08-30T01:33:24.213Z,77.90
2022-08-30T01:34:27.349Z,77.70
2022-08-30T01:35:35.769Z,77.70
2022-08-30T01:36:45.298Z,77.90
2022-08-30T01:37:48.433Z,77.90
2022-08-30T01:38:57.123Z,77.60
2022-08-30T01:39:59.754Z,77.20
2022-08-30T01:41:12.382Z,77.20
2022-08-30T01:42:17.363Z,77.40
2022-08-30T01:43:21.055Z,77.60
2022-08-30T01:44:23.275Z,77.30
2022-08-30T01:45:26.529Z,77.00
2022-08-30T01:46:36.153Z,77.20
2022-08-30T01:47:38.735Z,76.70
2022-08-30T01:48:50.337Z,77.30
2022-08-30T01:49:56.899Z,77.10
2022-08-30T01:51:00.679Z,77.00
2022-08-30T01:52:03.779Z,77.20
2022-08-30T01:53:07.161Z,76.60
2022-08-30T01:54:11.474Z,77.00
2022-08-30T01:55:15.272Z,77.00
2022-08-30T01:56:19.236Z,77.00
2022-08-30T01:57:23.715Z,76.80
2022-08-30T01:58:28.389Z,77.50
2022-08-30T01:59:30.946Z,77.30
2022-08-30T02:00:34.555Z,77.30
2022-08-30T02:01:39.625Z,77.50
2022-08-30T02:02:43.885Z,77.20
2022-08-30T02:03:48.409Z,77.70
2022-08-30T02:04:52.134Z,77.60
2022-08-30T02:05:55.785Z,77.90
2022-08-30T02:06:59.111Z,77.50
2022-08-30T02:08:01.447Z,77.70
2022-08-30T02:09:04.867Z,77.60
2022-08-30T02:10:09.471Z,77.60
2022-08-30T02:11:14.636Z,78.30
2022-08-30T02:12:17.189Z,77.50
2022-08-30T02:13:20.314Z,76.90
2022-08-30T02:14:22.570Z,77.50
2022-08-30T02:15:26.072Z,77.40
2022-08-30T02:16:28.606Z,76.70
2022-08-30T02:17:33.190Z,77.20
2022-08-30T02:18:37.637Z,77.50
2022-08-30T02:19:42.483Z,77.60
2022-08-30T02:20:47.849Z,77.40
2022-08-30T02:21:51.261Z,78.20
2022-08-30T02:22:53.462Z,78.40
2022-08-30T02:23:57.184Z,78.40
2022-08-30T02:25:01.488Z,78.10
2022-08-30T02:26:07.003Z,77.70
2022-08-30T02:27:09.611Z,77.50
2022-08-30T02:28:14.990Z,77.70
2022-08-30T02:29:17.615Z,77.70
2022-08-30T02:30:21.002Z,78.10
2022-08-30T02:31:23.756Z,78.00
2022-08-30T02:32:27.571Z,78.00
2022-08-30T02:33:29.937Z,78.10
2022-08-30T02:34:33.511Z,78.20
2022-08-30T02:35:35.884Z,78.10
2022-08-30T02:36:40.794Z,77.70
2022-08-30T02:37:43.673Z,77.60
2022-08-30T02:38:47.505Z,78.30
2022-08-30T02:39:49.796Z,78.20
2022-08-30T02:40:54.227Z,78.10
2022-08-30T02:41:59.377Z,78.70
2022-08-30T02:43:01.934Z,78.30
2022-08-30T02:44:05.945Z,78.00
2022-08-30T02:45:09.250Z,78.40
2022-08-30T02:46:12.637Z,78.20
2022-08-30T02:47:14.999Z,78.20
2022-08-30T02:48:18.833Z,78.40
2022-08-30T02:49:33.266Z,78.50
2022-08-30T02:50:41.117Z,78.90
2022-08-30T02:51:44.471Z,78.60
2022-08-30T02:52:48.164Z,78.80
2022-08-30T02:53:52.109Z,78.80
2022-08-30T02:54:55.050Z,78.90
2022-08-30T02:55:58.871Z,79.00
2022-08-30T02:57:05.201Z,78.60
2022-08-30T02:58:09.126Z,78.50
2022-08-30T02:59:11.790Z,78.40
2022-08-30T03:00:19.750Z,78.60
2022-08-30T03:01:24.403Z,78.70
2022-08-30T03:02:30.559Z,78.90
2022-08-30T03:03:33.786Z,78.60
2022-08-30T03:04:37.369Z,79.70
2022-08-30T03:05:39.946Z,79.10
2022-08-30T03:06:43.694Z,79.90
2022-08-30T03:07:47.675Z,79.40
2022-08-30T03:08:50.921Z,79.60
2022-08-30T03:09:53.540Z,80.00
2022-08-30T03:10:57.327Z,79.60
2022-08-30T03:11:59.856Z,79.60
2022-08-30T03:13:05.382Z,79.60
2022-08-30T03:14:07.756Z,79.70
2022-08-30T03:15:13.733Z,80.60
2022-08-30T03:16:16.223Z,80.30
2022-08-30T03:17:19.664Z,80.30
2022-08-30T03:18:22.651Z,80.00
2022-08-30T03:19:26.242Z,79.60
2022-08-30T03:20:29.174Z,80.20
2022-08-30T03:21:32.448Z,80.00
2022-08-30T03:22:34.959Z,79.50
2022-08-30T03:23:38.148Z,80.10
2022-08-30T03:24:40.732Z,79.60
2022-08-30T03:25:44.320Z,80.50
2022-08-30T03:26:46.958Z,80.50
2022-08-30T03:27:51.774Z,80.20
2022-08-30T03:28:55.488Z,80.80
2022-08-30T03:29:58.652Z,81.40
2022-08-30T03:31:01.366Z,80.60
2022-08-30T03:32:05.555Z,81.00
2022-08-30T03:33:08.907Z,81.40
2022-08-30T03:34:13.835Z,81.20
2022-08-30T03:35:20.393Z,81.10
2022-08-30T03:36:23.811Z,81.00
2022-08-30T03:37:27.779Z,81.30
2022-08-30T03:38:31.136Z,81.30
2022-08-30T03:39:33.519Z,80.50
2022-08-30T03:40:39.972Z,81.10
2022-08-30T03:41:42.751Z,80.70
2022-08-30T03:42:46.570Z,79.90
2022-08-30T03:43:48.927Z,80.90
2022-08-30T03:44:55.595Z,80.30
2022-08-30T03:45:57.968Z,80.70
2022-08-30T03:47:01.552Z,80.90
2022-08-30T03:48:04.507Z,80.60
2022-08-30T03:49:08.617Z,81.00
2022-08-30T03:50:13.543Z,80.40
2022-08-30T03:51:16.895Z,81.20
2022-08-30T03:52:19.312Z,81.20
2022-08-30T03:53:24.318Z,81.50
2022-08-30T03:54:27.831Z,81.70
2022-08-30T03:55:32.061Z,81.40
2022-08-30T03:56:34.297Z,81.50
2022-08-30T03:57:43.664Z,81.30
2022-08-30T03:58:46.139Z,81.10
2022-08-30T03:59:50.867Z,81.10
2022-08-30T04:00:54.590Z,81.30
2022-08-30T04:01:59.234Z,81.50
2022-08-30T04:03:01.792Z,81.10
2022-08-30T04:04:05.585Z,81.30
2022-08-30T04:05:09.110Z,81.60
2022-08-30T04:06:12.733Z,81.80
2022-08-30T04:07:14.993Z,81.90
2022-08-30T04:08:18.416Z,81.60
2022-08-30T04:09:20.781Z,81.20
2022-08-30T04:10:24.266Z,82.20
2022-08-30T04:11:26.513Z,81.90
2022-08-30T04:12:30.197Z,81.80
2022-08-30T04:13:32.523Z,81.70
2022-08-30T04:14:35.820Z,82.10
2022-08-30T04:15:38.142Z,81.50
2022-08-30T04:16:42.826Z,81.70
2022-08-30T04:17:45.737Z,81.50
2022-08-30T04:18:49.379Z,80.90
2022-08-30T04:19:51.611Z,81.20
2022-08-30T04:20:55.186Z,81.60
2022-08-30T04:21:57.467Z,81.60
2022-08-30T04:23:02.223Z,81.30
2022-08-30T04:24:05.386Z,80.40
2022-08-30T04:25:15.390Z,80.60
2022-08-30T04:26:19.419Z,80.30
2022-08-30T04:27:21.681Z,80.40
2022-08-30T04:28:25.301Z,79.70
2022-08-30T04:29:27.817Z,79.70
2022-08-30T04:30:31.833Z,78.70
2022-08-30T04:31:34.297Z,79.10
2022-08-30T04:32:39.207Z,78.70
2022-08-30T04:33:42.330Z,78.50
2022-08-30T04:34:46.326Z,77.90
2022-08-30T04:35:52.205Z,78.40
2022-08-30T04:36:57.476Z,77.90
2022-08-30T04:38:03.346Z,78.20
2022-08-30T04:39:07.745Z,78.80
2022-08-30T04:40:11.300Z,78.80
2022-08-30T04:41:18.246Z,78.90
2022-08-30T04:42:20.788Z,79.60
2022-08-30T04:43:26.430Z,79.70
2022-08-30T04:44:28.991Z,80.20
2022-08-30T04:45:32.819Z,80.60
2022-08-30T04:46:36.069Z,80.90
2022-08-30T04:47:49.912Z,81.30
2022-08-30T04:48:52.338Z,81.50
2022-08-30T04:49:55.708Z,82.30
2022-08-30T04:50:58.131Z,82.00
2022-08-30T04:52:01.401Z,82.10
2022-08-30T04:53:03.663Z,82.50
2022-08-30T04:54:07.333Z,82.90
2022-08-30T04:55:10.762Z,82.80
2022-08-30T04:56:16.798Z,82.90
2022-08-30T04:57:20.089Z,82.90
2022-08-30T04:58:22.344Z,84.00
2022-08-30T04:59:25.866Z,83.80
2022-08-30T05:00:29.256Z,83.80
2022-08-30T05:01:45.063Z,83.50
2022-08-30T05:02:50.675Z,83.50
2022-08-30T05:03:54.882Z,83.30
2022-08-30T05:05:15.815Z,84.10
2022-08-30T05:06:20.335Z,84.70
2022-08-30T05:07:22.665Z,84.40
2022-08-30T05:08:25.885Z,85.00
2022-08-30T05:09:28.411Z,84.40
2022-08-30T05:10:31.691Z,85.00
2022-08-30T05:11:33.898Z,84.90
2022-08-30T05:12:37.289Z,85.50
2022-08-30T05:13:40.567Z,85.40
2022-08-30T05:14:43.036Z,85.40
2022-08-30T05:15:49.401Z,86.60
2022-08-30T05:16:51.843Z,86.70
2022-08-30T05:17:56.522Z,86.60
2022-08-30T05:18:58.957Z,87.00
2022-08-30T05:20:02.999Z,87.00
2022-08-30T05:21:08.876Z,86.40
2022-08-30T05:22:12.363Z,86.50
2022-08-30T05:23:14.940Z,86.50
2022-08-30T05:24:18.543Z,87.50
2022-08-30T05:25:23.915Z,87.30
2022-08-30T05:26:30.057Z,87.20
2022-08-30T05:27:33.336Z,87.20
2022-08-30T05:28:41.613Z,87.40
2022-08-30T05:29:44.007Z,87.40
2022-08-30T05:30:47.398Z,86.90
2022-08-30T05:31:49.754Z,87.60
2022-08-30T05:32:54.007Z,87.30
2022-08-30T05:33:59.037Z,86.70
2022-08-30T05:35:04.884Z,87.00
2022-08-30T05:36:08.085Z,87.40
2022-08-30T05:37:11.336Z,87.00
2022-08-30T05:38:14.607Z,87.30
2022-08-30T05:39:18.004Z,87.00
2022-08-30T05:40:23.759Z,87.40
2022-08-30T05:41:28.470Z,87.00
2022-08-30T05:42:31.457Z,88.10
2022-08-30T05:43:34.848Z,87.70
2022-08-30T05:44:37.370Z,87.20
2022-08-30T05:45:47.536Z,87.50
2022-08-30T05:46:49.689Z,87.10
2022-08-30T05:47:52.949Z,86.60
2022-08-30T05:48:57.558Z,86.70
2022-08-30T05:50:00.979Z,86.60
2022-08-30T05:51:08.991Z,87.30
2022-08-30T05:52:12.890Z,86.40
2022-08-30T05:53:16.079Z,85.90
2022-08-30T05:54:20.233Z,86.50
2022-08-30T05:55:24.060Z,86.60
2022-08-30T05:56:32.133Z,85.50
2022-08-30T05:57:34.707Z,86.30
2022-08-30T05:58:39.763Z,85.80
2022-08-30T05:59:42.141Z,87.00
2022-08-30T06:00:45.657Z,87.30
2022-08-30T06:01:48.438Z,87.20
2022-08-30T06:02:55.347Z,87.20
2022-08-30T06:04:03.930Z,86.90
2022-08-30T06:05:08.601Z,86.30
2022-08-30T06:06:10.935Z,86.70
2022-08-30T06:07:15.841Z,87.20
2022-08-30T06:08:19.827Z,87.20
2022-08-30T06:09:23.337Z,87.60
2022-08-30T06:10:25.775Z,86.40
2022-08-30T06:11:29.449Z,86.60
2022-08-30T06:12:31.773Z,86.40
2022-08-30T06:13:34.969Z,85.90
2022-08-30T06:14:38.946Z,85.60
2022-08-30T06:15:43.925Z,86.30
2022-08-30T06:16:46.365Z,86.20
2022-08-30T06:17:50.163Z,86.20
2022-08-30T06:18:53.885Z,86.40
2022-08-30T06:19:58.645Z,86.30
2022-08-30T06:21:01.300Z,85.80
2022-08-30T06:22:04.725Z,85.90
2022-08-30T06:23:07.423Z,85.70
2022-08-30T06:24:16.699Z,85.80
2022-08-30T06:25:20.303Z,85.60
2022-08-30T06:26:23.396Z,85.60
2022-08-30T06:27:27.130Z,85.50
2022-08-30T06:28:29.419Z,85.10
2022-08-30T06:29:32.661Z,85.10
2022-08-30T06:30:35.261Z,85.80
2022-08-30T06:31:38.795Z,86.40
2022-08-30T06:32:41.516Z,85.60
2022-08-30T06:33:45.540Z,86.00
2022-08-30T06:34:48.515Z,86.50
2022-08-30T06:35:58.312Z,86.70
2022-08-30T06:37:02.949Z,86.10
2022-08-30T06:38:06.674Z,86.10
2022-08-30T06:39:10.586Z,86.80
2022-08-30T06:40:14.310Z,86.50
2022-08-30T06:41:21.997Z,85.70
2022-08-30T06:42:30.779Z,86.40
2022-08-30T06:43:34.415Z,86.20
2022-08-30T06:44:37.754Z,85.30
2022-08-30T06:45:40.297Z,85.00
2022-08-30T06:46:43.502Z,85.50
2022-08-30T06:47:46.403Z,85.00
2022-08-30T06:48:49.786Z,85.10
2022-08-30T06:49:53.166Z,85.40
2022-08-30T06:50:56.834Z,85.10
2022-08-30T06:52:00.468Z,85.10
2022-08-30T06:53:06.026Z,84.90
2022-08-30T06:54:12.051Z,84.10
2022-08-30T06:55:16.610Z,84.40
2022-08-30T06:56:22.200Z,84.40
2022-08-30T06:57:25.957Z,84.60
2022-08-30T06:58:28.411Z,84.70
2022-08-30T06:59:32.601Z,84.40
2022-08-30T07:00:34.887Z,85.20
2022-08-30T07:01:40.674Z,85.30
2022-08-30T07:02:43.819Z,84.70
2022-08-30T07:03:47.302Z,84.80
2022-08-30T07:04:50.790Z,84.70
2022-08-30T07:05:54.488Z,84.80
2022-08-30T07:06:59.157Z,84.50
2022-08-30T07:08:01.313Z,85.10
2022-08-30T07:09:04.999Z,83.90
2022-08-30T07:10:08.990Z,83.70
2022-08-30T07:11:12.560Z,84.40
2022-08-30T07:12:16.041Z,84.80
2022-08-30T07:13:19.964Z,85.60
2022-08-30T07:14:24.338Z,85.50
2022-08-30T07:15:26.614Z,85.50
2022-08-30T07:16:30.395Z,85.20
2022-08-30T07:17:52.662Z,85.20
2022-08-30T07:18:55.452Z,85.00
2022-08-30T07:19:59.195Z,84.80
2022-08-30T07:21:07.888Z,84.40
2022-08-30T07:22:12.609Z,85.10
2022-08-30T07:23:14.830Z,85.80
2022-08-30T07:24:19.520Z,85.70
2022-08-30T07:25:21.940Z,85.10
2022-08-30T07:26:28.461Z,85.80
2022-08-30T07:27:31.744Z,85.50
2022-08-30T07:28:35.748Z,85.70
2022-08-30T07:29:38.105Z,86.00
2022-08-30T07:30:43.101Z,86.00
2022-08-30T07:31:46.874Z,86.60
2022-08-30T07:32:50.564Z,85.50
2022-08-30T07:33:54.692Z,86.70
2022-08-30T07:34:57.002Z,86.80
2022-08-30T07:36:01.427Z,86.40
2022-08-30T07:37:05.101Z,86.10
2022-08-30T07:38:14.694Z,86.40
2022-08-30T07:39:18.324Z,86.00
2022-08-30T07:40:21.350Z,86.50
2022-08-30T07:41:27.887Z,86.50
2022-08-30T07:42:30.328Z,86.10
2022-08-30T07:43:35.327Z,86.40
2022-08-30T07:44:37.787Z,86.50
2022-08-30T07:45:41.568Z,86.70
2022-08-30T07:46:45.341Z,86.90
2022-08-30T07:47:48.008Z,86.90
2022-08-30T07:48:54.362Z,86.60
2022-08-30T07:49:56.728Z,86.20
2022-08-30T07:51:05.055Z,86.50
2022-08-30T07:52:07.831Z,87.50
2022-08-30T07:53:13.364Z,87.60
2022-08-30T07:54:17.227Z,87.70
2022-08-30T07:55:20.391Z,86.80
2022-08-30T07:56:24.678Z,86.90
2022-08-30T07:57:27.748Z,86.00
2022-08-30T07:58:31.225Z,86.20
2022-08-30T07:59:36.113Z,86.70
2022-08-30T08:00:39.676Z,86.30
2022-08-30T08:01:43.280Z,86.10
2022-08-30T08:02:46.644Z,86.70
2022-08-30T08:03:51.424Z,87.40
2022-08-30T08:04:53.889Z,86.30
2022-08-30T08:05:57.927Z,85.60
2022-08-30T08:07:01.293Z,84.90
2022-08-30T08:08:03.948Z,84.30
2022-08-30T08:09:10.312Z,85.30
2022-08-30T08:10:14.191Z,85.10
2022-08-30T08:11:19.602Z,85.00
2022-08-30T08:12:22.883Z,85.00
2022-08-30T08:13:28.026Z,84.70
2022-08-30T08:14:32.251Z,84.50
2022-08-30T08:15:34.679Z,84.40
2022-08-30T08:16:39.381Z,84.50
2022-08-30T08:17:41.818Z,85.20
2022-08-30T08:18:45.186Z,84.90
2022-08-30T08:19:48.665Z,85.00
2022-08-30T08:20:52.159Z,85.10
2022-08-30T08:22:21.096Z,84.40
2022-08-30T08:23:23.677Z,84.90
2022-08-30T08:24:27.965Z,84.70
2022-08-30T08:25:31.834Z,84.50
2022-08-30T08:26:37.043Z,84.90
2022-08-30T08:27:39.623Z,86.50
2022-08-30T08:28:46.661Z,85.20
2022-08-30T08:29:49.273Z,85.50
2022-08-30T08:30:52.936Z,85.10
2022-08-30T08:31:57.848Z,86.20
2022-08-30T08:33:00.163Z,85.10
2022-08-30T08:34:05.773Z,85.00
2022-08-30T08:35:08.954Z,84.90
2022-08-30T08:36:12.535Z,84.20
2022-08-30T08:37:14.787Z,85.10
2022-08-30T08:38:18.285Z,85.50
2022-08-30T08:39:20.760Z,85.00
2022-08-30T08:40:25.645Z,84.00
2022-08-30T08:41:42.176Z,83.50
2022-08-30T08:43:00.716Z,85.50
2022-08-30T08:44:15.223Z,83.80
2022-08-30T08:45:25.074Z,83.40
2022-08-30T08:46:34.732Z,82.60
2022-08-30T08:47:41.125Z,82.50
2022-08-30T08:49:05.239Z,82.10
2022-08-30T08:50:17.187Z,83.30
2022-08-30T08:51:48.812Z,83.50
2022-08-30T08:53:25.102Z,84.10
2022-08-30T08:54:42.445Z,82.90
2022-08-30T08:55:51.807Z,83.50
2022-08-30T08:56:57.761Z,82.80
2022-08-30T08:58:01.409Z,83.00
2022-08-30T08:59:09.093Z,82.80
2022-08-30T09:00:17.658Z,82.20
2022-08-30T09:01:24.570Z,81.80
2022-08-30T09:02:30.331Z,83.30
2022-08-30T09:03:35.338Z,82.50
2022-08-30T09:04:40.379Z,82.60
2022-08-30T09:05:45.474Z,81.90
2022-08-30T09:06:56.678Z,81.20
2022-08-30T09:08:06.493Z,80.80
2022-08-30T09:09:12.737Z,80.90
2022-08-30T09:10:18.345Z,80.40
2022-08-30T09:11:32.468Z,81.40
2022-08-30T09:12:35.741Z,80.70
2022-08-30T09:13:38.075Z,80.30
2022-08-30T09:14:46.652Z,80.80
2022-08-30T09:15:53.836Z,81.20
2022-08-30T09:17:02.882Z,80.60
2022-08-30T09:18:12.907Z,80.10
2022-08-30T09:19:34.324Z,80.60
2022-08-30T09:20:41.392Z,80.40
2022-08-30T09:21:43.853Z,80.60
2022-08-30T09:22:47.330Z,80.90
2022-08-30T09:23:57.341Z,80.50
2022-08-30T09:25:04.942Z,81.40
2022-08-30T09:26:10.911Z,80.60
2022-08-30T09:27:22.118Z,80.20
2022-08-30T09:28:29.971Z,80.40
2022-08-30T09:29:32.599Z,80.30
2022-08-30T09:30:37.392Z,79.40
2022-08-30T09:31:49.029Z,79.40
2022-08-30T09:32:55.846Z,79.20
2022-08-30T09:34:03.560Z,79.70
2022-08-30T09:35:11.874Z,79.90
2022-08-30T09:36:24.809Z,78.00
2022-08-30T09:37:40.197Z,79.10
2022-08-30T09:38:43.001Z,79.40
2022-08-30T09:39:46.399Z,80.00
2022-08-30T09:40:52.795Z,79.70
2022-08-30T09:42:10.253Z,79.20
2022-08-30T09:43:25.898Z,80.20
2022-08-30T09:44:29.831Z,80.60
2022-08-30T09:45:36.583Z,79.20
2022-08-30T09:46:50.765Z,78.40
2022-08-30T09:47:54.110Z,79.00
2022-08-30T09:48:58.226Z,79.00
2022-08-30T09:50:06.667Z,79.40
2022-08-30T09:51:26.872Z,78.30
2022-08-30T09:52:46.194Z,78.40
2022-08-30T09:54:22.619Z,78.80
2022-08-30T09:55:44.658Z,77.80
2022-08-30T09:57:01.075Z,78.10
2022-08-30T09:58:13.571Z,77.70
2022-08-30T09:59:40.943Z,77.80
2022-08-30T10:00:53.156Z,77.20
2022-08-30T10:02:04.481Z,78.30
2022-08-30T10:03:35.753Z,79.60
2022-08-30T10:04:50.733Z,78.90
2022-08-30T10:06:02.981Z,78.90
2022-08-30T10:07:12.313Z,79.70
2022-08-30T10:08:25.316Z,79.50
2022-08-30T10:09:40.731Z,79.20
2022-08-30T10:10:51.286Z,79.70
2022-08-30T10:12:06.240Z,79.20
2022-08-30T10:13:36.500Z,78.70
2022-08-30T10:15:02.047Z,79.80
2022-08-30T10:16:18.246Z,79.10
2022-08-30T10:17:41.858Z,79.40
2022-08-30T10:19:00.243Z,79.70
2022-08-30T10:20:17.116Z,78.50
2022-08-30T10:21:26.015Z,79.00
2022-08-30T10:22:35.657Z,78.20
2022-08-30T10:23:46.158Z,77.90
2022-08-30T10:24:54.814Z,78.40
2022-08-30T10:26:09.360Z,78.10
2022-08-30T10:27:20.723Z,77.90
2022-08-30T10:28:31.900Z,78.30
2022-08-30T10:29:42.474Z,78.90
2022-08-30T10:30:55.772Z,79.20
2022-08-30T10:32:06.580Z,79.20
2022-08-30T10:33:17.149Z,79.90
2022-08-30T10:34:26.180Z,79.70
2022-08-30T10:35:38.670Z,79.70
2022-08-30T10:36:47.177Z,80.80
2022-08-30T10:37:56.122Z,80.50
2022-08-30T10:39:02.044Z,81.40
2022-08-30T10:40:28.200Z,81.80
2022-08-30T10:41:40.531Z,81.80
2022-08-30T10:42:43.283Z,82.20
2022-08-30T10:43:57.095Z,81.80
2022-08-30T10:45:10.457Z,81.10
2022-08-30T10:46:24.209Z,80.50
2022-08-30T10:47:37.770Z,80.80
2022-08-30T10:48:47.357Z,81.50
2022-08-30T10:49:58.972Z,80.30
2022-08-30T10:51:11.850Z,80.30
2022-08-30T10:52:26.879Z,79.90
2022-08-30T10:53:34.146Z,80.00
2022-08-30T10:54:44.494Z,81.10
2022-08-30T10:55:53.325Z,79.90
2022-08-30T10:56:58.125Z,81.20
2022-08-30T10:58:01.803Z,80.40
2022-08-30T10:59:07.136Z,81.30
2022-08-30T11:00:24.641Z,80.40
2022-08-30T11:01:48.044Z,81.00
2022-08-30T11:03:42.773Z,81.40
2022-08-30T11:05:15.359Z,81.40
2022-08-30T11:06:31.549Z,80.00
2022-08-30T11:07:47.698Z,81.00
2022-08-30T11:09:25.866Z,79.60
2022-08-30T11:10:50.101Z,78.60
2022-08-30T11:12:18.364Z,80.10
2022-08-30T11:13:26.776Z,78.20
2022-08-30T11:14:30.882Z,78.40
2022-08-30T11:15:52.771Z,79.80
2022-08-30T11:17:02.496Z,80.30
2022-08-30T11:18:13.036Z,78.60
2022-08-30T11:19:22.295Z,78.70
2022-08-30T11:20:39.969Z,78.30
2022-08-30T11:21:45.777Z,78.20
2022-08-30T11:23:29.038Z,78.50
2022-08-30T11:25:10.149Z,78.20
2022-08-30T11:26:33.953Z,78.80
2022-08-30T11:27:45.121Z,77.70
2022-08-30T11:29:07.934Z,78.40
2022-08-30T11:30:46.752Z,78.20
2022-08-30T11:31:50.080Z,77.60
2022-08-30T11:33:07.883Z,77.80
2022-08-30T11:34:13.864Z,79.10
2022-08-30T11:35:46.054Z,80.00
2022-08-30T11:37:09.891Z,78.20
2022-08-30T11:38:21.048Z,78.80
2022-08-30T11:40:02.053Z,78.70
2022-08-30T11:41:11.461Z,79.10
2022-08-30T11:42:30.024Z,78.20
2022-08-30T11:44:18.308Z,77.80
2022-08-30T11:45:52.740Z,76.70
2022-08-30T11:46:56.912Z,76.20
2022-08-30T11:48:04.660Z,76.30
2022-08-30T11:49:36.554Z,75.30
2022-08-30T11:50:56.129Z,75.50
2022-08-30T11:52:28.867Z,74.80
2022-08-30T11:53:44.370Z,74.50
2022-08-30T11:55:18.593Z,75.70
2022-08-30T11:56:28.678Z,75.50
2022-08-30T11:57:43.816Z,75.20
2022-08-30T11:58:55.196Z,75.10
2022-08-30T12:00:08.732Z,76.70
2022-08-30T12:01:41.796Z,74.90
2022-08-30T12:02:55.661Z,75.60
2022-08-30T12:04:05.486Z,76.40
2022-08-30T12:05:08.016Z,76.00
2022-08-30T12:06:34.083Z,75.00
2022-08-30T12:07:57.201Z,74.40
2022-08-30T12:10:32.155Z,74.10
2022-08-30T12:10:36.192Z,74.70
2022-08-30T12:12:05.838Z,73.50
2022-08-30T12:13:09.277Z,74.50
2022-08-30T12:14:52.171Z,73.00
2022-08-30T12:15:57.895Z,72.90
2022-08-30T12:17:30.102Z,72.30
2022-08-30T12:18:46.751Z,72.90
2022-08-30T12:19:50.630Z,73.30
2022-08-30T12:20:55.544Z,72.70
2022-08-30T12:22:02.029Z,72.40
2022-08-30T12:23:21.781Z,72.20
2022-08-30T12:24:34.831Z,72.10
2022-08-30T12:25:37.365Z,72.70
2022-08-30T12:26:43.108Z,73.10
2022-08-30T12:27:45.624Z,72.40
2022-08-30T12:28:52.236Z,71.80
2022-08-30T12:29:59.469Z,72.00
2022-08-30T12:31:10.894Z,72.20
2022-08-30T12:32:22.230Z,72.50
2022-08-30T12:33:29.314Z,72.50
2022-08-30T12:34:38.358Z,72.10
2022-08-30T12:35:46.982Z,72.70
2022-08-30T12:36:56.027Z,72.20
2022-08-30T12:38:03.867Z,72.10
2022-08-30T12:39:10.566Z,72.10
2022-08-30T12:40:17.053Z,71.00
2022-08-30T12:41:22.716Z,71.50
2022-08-30T12:42:28.164Z,72.50
2022-08-30T12:43:41.392Z,73.30
2022-08-30T12:44:46.285Z,72.10
2022-08-30T12:45:51.324Z,72.20
2022-08-30T12:47:00.957Z,73.70
2022-08-30T12:48:08.191Z,71.70
2022-08-30T12:49:16.384Z,71.60
2022-08-30T12:50:24.739Z,71.30
2022-08-30T12:51:38.619Z,73.20
2022-08-30T12:52:46.136Z,73.50
2022-08-30T12:53:51.477Z,71.30
2022-08-30T12:54:57.577Z,71.20
2022-08-30T12:56:04.978Z,71.20
2022-08-30T12:57:25.577Z,71.40
2022-08-30T12:58:37.177Z,71.00
2022-08-30T12:59:55.476Z,71.50
2022-08-30T13:01:19.616Z,72.00
2022-08-30T13:02:26.573Z,73.80
2022-08-30T13:03:36.769Z,72.50
2022-08-30T13:04:40.028Z,72.90
2022-08-30T13:05:50.090Z,72.30
2022-08-30T13:06:59.090Z,72.70
2022-08-30T13:08:15.903Z,72.10
2022-08-30T13:09:32.274Z,72.00
2022-08-30T13:10:36.032Z,72.80
2022-08-30T13:11:39.111Z,72.70
2022-08-30T13:12:58.439Z,73.30
2022-08-30T13:14:22.094Z,72.50
2022-08-30T13:15:32.625Z,73.60
2022-08-30T13:16:41.262Z,73.40
2022-08-30T13:17:47.667Z,73.20
2022-08-30T13:18:55.184Z,73.20
2022-08-30T13:20:01.530Z,72.20
2022-08-30T13:21:13.574Z,71.60
2022-08-30T13:22:27.196Z,71.70
2022-08-30T13:23:30.438Z,71.90
2022-08-30T13:24:33.145Z,72.60
2022-08-30T13:25:39.669Z,72.20
2022-08-30T13:26:42.310Z,72.80
2022-08-30T13:27:45.571Z,73.10
2022-08-30T13:28:54.234Z,73.20
2022-08-30T13:29:59.811Z,73.10
2022-08-30T13:31:03.259Z,73.50
2022-08-30T13:32:07.088Z,75.40
2022-08-30T13:33:11.694Z,75.80
2022-08-30T13:34:18.876Z,75.00
2022-08-30T13:35:22.759Z,74.80
2022-08-30T13:36:30.996Z,74.70
2022-08-30T13:37:51.989Z,75.20
2022-08-30T13:38:55.789Z,76.00
2022-08-30T13:40:04.544Z,74.70
2022-08-30T13:41:08.919Z,74.00
2022-08-30T13:44:09.369Z,74.90
2022-08-30T13:45:01.453Z,77.20
2022-08-30T13:46:04.406Z,76.00
2022-08-30T13:48:33.728Z,74.10
2022-08-30T13:49:46.895Z,75.90
2022-08-30T13:50:50.430Z,75.40
2022-08-30T13:52:18.926Z,74.30
2022-08-30T13:53:51.928Z,75.00
2022-08-30T13:54:42.976Z,76.20
2022-08-30T13:55:46.772Z,75.30
2022-08-30T13:56:52.514Z,75.60
2022-08-30T13:57:57.347Z,74.60
2022-08-30T13:59:02.852Z,74.80
2022-08-30T14:00:09.023Z,75.20
2022-08-30T14:01:15.661Z,73.80
2022-08-30T14:02:19.128Z,74.40
2022-08-30T14:03:22.689Z,75.60
2022-08-30T14:04:25.080Z,74.90
2022-08-30T14:05:50.099Z,74.50
2022-08-30T14:09:47.027Z,73.70
2022-08-30T14:10:49.980Z,73.60
2022-08-30T14:11:53.638Z,73.80
2022-08-30T14:13:02.617Z,74.10
2022-08-30T14:14:15.434Z,74.00
2022-08-30T14:15:20.972Z,75.10
2022-08-30T14:16:27.984Z,75.50
2022-08-30T14:17:32.895Z,75.00
2022-08-30T14:18:35.360Z,74.20
2022-08-30T14:19:40.434Z,73.80
2022-08-30T14:20:44.196Z,73.30
2022-08-30T14:21:51.362Z,74.10
2022-08-30T14:22:54.131Z,74.50
2022-08-30T14:24:00.725Z,74.10
2022-08-30T14:25:04.231Z,76.60
2022-08-30T14:26:17.268Z,75.20
2022-08-30T14:27:20.126Z,74.30
2022-08-30T14:28:26.500Z,74.60
2022-08-30T14:29:30.016Z,74.30
2022-08-30T14:30:33.552Z,73.60
2022-08-30T14:31:41.884Z,73.60